Terminal Aerodrome Forecast
Issued by NWS

Home | Current Version | Previous Version | Text Only | Print | Product List | Glossary On
Versions: 1 2 3 4 5 6 7 8 9 10 11 12 13 14 15
958
FTUS43 KAPX 010520
TAFMBL
TAF
KMBL 010520Z 0106/0206 11007KT P6SM SCT040 OVC080
     FM011000 09008KT P6SM VCSH OVC040
     FM011800 07009KT P6SM BKN050 OVC100
     FM020000 06004KT P6SM BKN120
      AMD LTD TO CLD VIS AND WIND=

USA.gov is the U.S. government's official web portal to all federal, state and local government web resources and services.